sensor_id;sensor_type;location;lat;lon;timestamp;P1;durP1;ratioP1;P2;durP2;ratioP2
39918;SDS011;25589;51.552;13.424;2022-08-27T00:00:41;13.73;;;8.80;;
39918;SDS011;25589;51.552;13.424;2022-08-27T00:03:07;10.00;;;8.57;;
39918;SDS011;25589;51.552;13.424;2022-08-27T00:05:33;13.13;;;8.82;;
39918;SDS011;25589;51.552;13.424;2022-08-27T00:08:01;12.30;;;8.70;;
39918;SDS011;25589;51.552;13.424;2022-08-27T00:10:31;10.73;;;8.52;;
39918;SDS011;25589;51.552;13.424;2022-08-27T00:12:57;14.77;;;8.85;;
39918;SDS011;25589;51.552;13.424;2022-08-27T00:15:23;9.52;;;7.90;;
39918;SDS011;25589;51.552;13.424;2022-08-27T00:17:49;11.40;;;9.05;;
39918;SDS011;25589;51.552;13.424;2022-08-27T00:20:16;11.52;;;8.63;;
39918;SDS011;25589;51.552;13.424;2022-08-27T00:22:42;11.55;;;8.07;;
39918;SDS011;25589;51.552;13.424;2022-08-27T00:25:08;14.48;;;9.45;;
39918;SDS011;25589;51.552;13.424;2022-08-27T00:27:35;12.38;;;8.00;;
39918;SDS011;25589;51.552;13.424;2022-08-27T00:30:01;11.18;;;8.73;;
39918;SDS011;25589;51.552;13.424;2022-08-27T00:32:27;16.10;;;9.50;;
39918;SDS011;25589;51.552;13.424;2022-08-27T00:34:53;15.70;;;10.18;;
39918;SDS011;25589;51.552;13.424;2022-08-27T00:37:19;12.10;;;9.90;;
39918;SDS011;25589;51.552;13.424;2022-08-27T00:39:45;13.93;;;9.82;;
39918;SDS011;25589;51.552;13.424;2022-08-27T00:42:11;12.80;;;10.77;;
39918;SDS011;25589;51.552;13.424;2022-08-27T00:44:37;14.55;;;11.10;;
39918;SDS011;25589;51.552;13.424;2022-08-27T00:47:04;13.85;;;11.10;;
39918;SDS011;25589;51.552;13.424;2022-08-27T00:52:20;12.77;;;10.43;;
39918;SDS011;25589;51.552;13.424;2022-08-27T00:54:52;14.82;;;11.52;;
39918;SDS011;25589;51.552;13.424;2022-08-27T00:57:22;16.98;;;11.95;;
39918;SDS011;25589;51.552;13.424;2022-08-27T00:59:48;14.60;;;11.52;;
39918;SDS011;25589;51.552;13.424;2022-08-27T01:02:14;14.85;;;11.35;;
39918;SDS011;25589;51.552;13.424;2022-08-27T01:04:51;13.80;;;10.93;;
39918;SDS011;25589;51.552;13.424;2022-08-27T01:07:22;15.40;;;11.68;;
39918;SDS011;25589;51.552;13.424;2022-08-27T01:09:51;13.50;;;11.32;;
39918;SDS011;25589;51.552;13.424;2022-08-27T01:12:18;12.25;;;10.77;;
39918;SDS011;25589;51.552;13.424;2022-08-27T01:14:44;15.27;;;11.48;;
39918;SDS011;25589;51.552;13.424;2022-08-27T01:17:11;13.32;;;11.18;;
39918;SDS011;25589;51.552;13.424;2022-08-27T01:19:57;12.98;;;11.23;;
39918;SDS011;25589;51.552;13.424;2022-08-27T01:25:15;16.90;;;11.27;;
39918;SDS011;25589;51.552;13.424;2022-08-27T01:27:42;13.85;;;11.40;;
39918;SDS011;25589;51.552;13.424;2022-08-27T01:30:09;15.40;;;11.40;;
39918;SDS011;25589;51.552;13.424;2022-08-27T01:32:38;13.02;;;11.60;;
39918;SDS011;25589;51.552;13.424;2022-08-27T01:35:05;17.73;;;11.18;;
39918;SDS011;25589;51.552;13.424;2022-08-27T01:37:33;16.45;;;12.55;;
39918;SDS011;25589;51.552;13.424;2022-08-27T01:40:00;15.55;;;11.55;;
39918;SDS011;25589;51.552;13.424;2022-08-27T01:44:53;14.75;;;11.70;;
39918;SDS011;25589;51.552;13.424;2022-08-27T01:47:21;20.33;;;11.45;;
39918;SDS011;25589;51.552;13.424;2022-08-27T01:49:49;17.27;;;11.98;;
39918;SDS011;25589;51.552;13.424;2022-08-27T01:52:15;18.40;;;11.20;;
39918;SDS011;25589;51.552;13.424;2022-08-27T01:54:43;18.25;;;11.70;;
39918;SDS011;25589;51.552;13.424;2022-08-27T01:57:09;17.20;;;11.00;;
39918;SDS011;25589;51.552;13.424;2022-08-27T01:59:36;16.25;;;11.48;;
39918;SDS011;25589;51.552;13.424;2022-08-27T02:02:02;17.88;;;11.32;;
39918;SDS011;25589;51.552;13.424;2022-08-27T02:04:28;18.48;;;11.25;;
39918;SDS011;25589;51.552;13.424;2022-08-27T02:06:56;13.68;;;11.45;;
39918;SDS011;25589;51.552;13.424;2022-08-27T02:12:16;14.93;;;11.10;;
39918;SDS011;25589;51.552;13.424;2022-08-27T02:14:41;16.10;;;11.70;;
39918;SDS011;25589;51.552;13.424;2022-08-27T02:17:07;16.15;;;11.20;;
39918;SDS011;25589;51.552;13.424;2022-08-27T02:19:33;18.33;;;11.55;;
39918;SDS011;25589;51.552;13.424;2022-08-27T02:21:58;16.88;;;12.15;;
39918;SDS011;25589;51.552;13.424;2022-08-27T02:24:25;17.27;;;13.57;;
39918;SDS011;25589;51.552;13.424;2022-08-27T02:26:53;15.82;;;12.60;;
39918;SDS011;25589;51.552;13.424;2022-08-27T02:29:19;16.60;;;13.63;;
39918;SDS011;25589;51.552;13.424;2022-08-27T02:31:45;20.05;;;13.80;;
39918;SDS011;25589;51.552;13.424;2022-08-27T02:34:11;14.55;;;12.95;;
39918;SDS011;25589;51.552;13.424;2022-08-27T02:36:37;21.52;;;14.98;;
39918;SDS011;25589;51.552;13.424;2022-08-27T02:39:03;18.30;;;14.35;;
39918;SDS011;25589;51.552;13.424;2022-08-27T02:41:29;18.15;;;13.80;;
39918;SDS011;25589;51.552;13.424;2022-08-27T02:43:55;18.63;;;13.68;;
39918;SDS011;25589;51.552;13.424;2022-08-27T02:46:21;19.95;;;13.82;;
39918;SDS011;25589;51.552;13.424;2022-08-27T02:48:46;17.52;;;14.18;;
39918;SDS011;25589;51.552;13.424;2022-08-27T02:51:12;17.75;;;13.52;;
39918;SDS011;25589;51.552;13.424;2022-08-27T02:53:37;18.95;;;13.45;;
39918;SDS011;25589;51.552;13.424;2022-08-27T02:56:04;19.70;;;14.38;;
39918;SDS011;25589;51.552;13.424;2022-08-27T02:58:30;20.27;;;14.43;;
39918;SDS011;25589;51.552;13.424;2022-08-27T03:00:57;20.40;;;14.70;;
39918;SDS011;25589;51.552;13.424;2022-08-27T03:03:25;18.13;;;14.32;;
39918;SDS011;25589;51.552;13.424;2022-08-27T03:05:52;22.70;;;16.30;;
39918;SDS011;25589;51.552;13.424;2022-08-27T03:08:18;21.77;;;15.60;;
39918;SDS011;25589;51.552;13.424;2022-08-27T03:10:43;18.35;;;15.45;;
39918;SDS011;25589;51.552;13.424;2022-08-27T03:13:09;25.58;;;16.63;;
39918;SDS011;25589;51.552;13.424;2022-08-27T03:15:35;22.13;;;17.50;;
39918;SDS011;25589;51.552;13.424;2022-08-27T03:18:01;26.10;;;19.15;;
39918;SDS011;25589;51.552;13.424;2022-08-27T03:20:52;25.50;;;18.45;;
39918;SDS011;25589;51.552;13.424;2022-08-27T03:23:21;25.88;;;19.48;;
39918;SDS011;25589;51.552;13.424;2022-08-27T03:25:53;27.45;;;20.08;;
39918;SDS011;25589;51.552;13.424;2022-08-27T03:28:21;25.13;;;19.30;;
39918;SDS011;25589;51.552;13.424;2022-08-27T03:31:00;27.48;;;20.13;;
39918;SDS011;25589;51.552;13.424;2022-08-27T03:33:28;27.05;;;19.45;;
39918;SDS011;25589;51.552;13.424;2022-08-27T03:35:55;31.40;;;20.63;;
39918;SDS011;25589;51.552;13.424;2022-08-27T03:38:21;29.35;;;20.63;;
39918;SDS011;25589;51.552;13.424;2022-08-27T03:40:47;30.00;;;20.48;;
39918;SDS011;25589;51.552;13.424;2022-08-27T03:43:13;30.23;;;20.70;;
39918;SDS011;25589;51.552;13.424;2022-08-27T03:45:44;30.48;;;21.50;;
39918;SDS011;25589;51.552;13.424;2022-08-27T03:48:11;30.00;;;21.23;;
39918;SDS011;25589;51.552;13.424;2022-08-27T03:50:38;29.63;;;21.25;;
39918;SDS011;25589;51.552;13.424;2022-08-27T03:53:05;32.97;;;21.42;;
39918;SDS011;25589;51.552;13.424;2022-08-27T03:55:31;37.63;;;22.60;;
39918;SDS011;25589;51.552;13.424;2022-08-27T03:57:57;30.27;;;21.13;;
39918;SDS011;25589;51.552;13.424;2022-08-27T04:00:22;30.98;;;21.45;;
39918;SDS011;25589;51.552;13.424;2022-08-27T04:02:51;28.77;;;20.65;;
39918;SDS011;25589;51.552;13.424;2022-08-27T04:05:18;30.63;;;22.38;;
39918;SDS011;25589;51.552;13.424;2022-08-27T04:07:43;34.67;;;21.65;;
39918;SDS011;25589;51.552;13.424;2022-08-27T04:10:09;34.03;;;22.63;;
39918;SDS011;25589;51.552;13.424;2022-08-27T04:12:36;37.40;;;22.08;;
39918;SDS011;25589;51.552;13.424;2022-08-27T04:15:03;34.30;;;21.95;;
39918;SDS011;25589;51.552;13.424;2022-08-27T04:17:29;33.15;;;20.88;;
39918;SDS011;25589;51.552;13.424;2022-08-27T04:19:55;34.92;;;21.13;;
39918;SDS011;25589;51.552;13.424;2022-08-27T04:22:21;31.83;;;21.40;;
39918;SDS011;25589;51.552;13.424;2022-08-27T04:24:47;36.80;;;23.35;;
39918;SDS011;25589;51.552;13.424;2022-08-27T04:27:13;33.40;;;20.50;;
39918;SDS011;25589;51.552;13.424;2022-08-27T04:29:40;34.28;;;21.10;;
39918;SDS011;25589;51.552;13.424;2022-08-27T04:32:06;33.20;;;21.60;;
39918;SDS011;25589;51.552;13.424;2022-08-27T04:34:32;37.65;;;21.63;;
39918;SDS011;25589;51.552;13.424;2022-08-27T04:36:59;33.65;;;21.05;;
39918;SDS011;25589;51.552;13.424;2022-08-27T04:39:25;32.53;;;21.50;;
39918;SDS011;25589;51.552;13.424;2022-08-27T04:41:53;30.15;;;19.83;;
39918;SDS011;25589;51.552;13.424;2022-08-27T04:44:20;31.20;;;19.85;;
39918;SDS011;25589;51.552;13.424;2022-08-27T04:46:46;33.13;;;20.55;;
39918;SDS011;25589;51.552;13.424;2022-08-27T04:49:13;33.75;;;20.90;;
39918;SDS011;25589;51.552;13.424;2022-08-27T04:51:39;31.23;;;20.45;;
39918;SDS011;25589;51.552;13.424;2022-08-27T04:54:06;33.38;;;21.40;;
39918;SDS011;25589;51.552;13.424;2022-08-27T04:56:32;28.80;;;19.33;;
39918;SDS011;25589;51.552;13.424;2022-08-27T04:59:00;31.20;;;20.55;;
39918;SDS011;25589;51.552;13.424;2022-08-27T05:01:28;33.58;;;21.13;;
39918;SDS011;25589;51.552;13.424;2022-08-27T05:03:54;30.38;;;20.77;;
39918;SDS011;25589;51.552;13.424;2022-08-27T05:06:21;30.73;;;21.08;;
39918;SDS011;25589;51.552;13.424;2022-08-27T05:08:47;33.50;;;20.90;;
39918;SDS011;25589;51.552;13.424;2022-08-27T05:11:14;30.25;;;20.25;;
39918;SDS011;25589;51.552;13.424;2022-08-27T05:13:41;30.90;;;19.75;;
39918;SDS011;25589;51.552;13.424;2022-08-27T05:16:09;31.50;;;20.55;;
39918;SDS011;25589;51.552;13.424;2022-08-27T05:18:40;32.85;;;19.95;;
39918;SDS011;25589;51.552;13.424;2022-08-27T05:21:06;30.70;;;18.90;;
39918;SDS011;25589;51.552;13.424;2022-08-27T05:23:33;31.67;;;18.40;;
39918;SDS011;25589;51.552;13.424;2022-08-27T05:26:00;30.23;;;19.30;;
39918;SDS011;25589;51.552;13.424;2022-08-27T05:28:26;31.02;;;18.88;;
39918;SDS011;25589;51.552;13.424;2022-08-27T05:30:53;27.48;;;18.33;;
39918;SDS011;25589;51.552;13.424;2022-08-27T05:33:21;30.23;;;19.67;;
39918;SDS011;25589;51.552;13.424;2022-08-27T05:35:52;29.25;;;19.58;;
39918;SDS011;25589;51.552;13.424;2022-08-27T05:38:19;30.83;;;19.63;;
39918;SDS011;25589;51.552;13.424;2022-08-27T05:40:46;27.02;;;20.27;;
39918;SDS011;25589;51.552;13.424;2022-08-27T05:43:13;27.45;;;18.25;;
39918;SDS011;25589;51.552;13.424;2022-08-27T05:45:41;28.25;;;17.75;;
39918;SDS011;25589;51.552;13.424;2022-08-27T05:48:08;28.05;;;18.17;;
39918;SDS011;25589;51.552;13.424;2022-08-27T05:50:41;25.35;;;18.25;;
39918;SDS011;25589;51.552;13.424;2022-08-27T05:53:08;26.23;;;18.35;;
39918;SDS011;25589;51.552;13.424;2022-08-27T05:55:36;34.15;;;18.52;;
39918;SDS011;25589;51.552;13.424;2022-08-27T05:58:07;22.98;;;16.92;;
39918;SDS011;25589;51.552;13.424;2022-08-27T06:00:53;26.75;;;19.27;;
39918;SDS011;25589;51.552;13.424;2022-08-27T06:03:31;32.22;;;19.35;;
39918;SDS011;25589;51.552;13.424;2022-08-27T06:06:00;28.55;;;18.65;;
39918;SDS011;25589;51.552;13.424;2022-08-27T06:08:31;30.80;;;19.58;;
39918;SDS011;25589;51.552;13.424;2022-08-27T06:10:58;28.70;;;17.77;;
39918;SDS011;25589;51.552;13.424;2022-08-27T06:13:25;29.40;;;17.77;;
39918;SDS011;25589;51.552;13.424;2022-08-27T06:16:02;28.85;;;18.08;;
39918;SDS011;25589;51.552;13.424;2022-08-27T06:18:30;26.40;;;16.60;;
39918;SDS011;25589;51.552;13.424;2022-08-27T06:20:56;23.63;;;15.65;;
39918;SDS011;25589;51.552;13.424;2022-08-27T06:23:22;26.48;;;16.90;;
39918;SDS011;25589;51.552;13.424;2022-08-27T06:25:47;32.45;;;16.77;;
39918;SDS011;25589;51.552;13.424;2022-08-27T06:28:13;26.40;;;16.00;;
39918;SDS011;25589;51.552;13.424;2022-08-27T06:30:39;25.45;;;16.00;;
39918;SDS011;25589;51.552;13.424;2022-08-27T06:33:04;26.80;;;15.45;;
39918;SDS011;25589;51.552;13.424;2022-08-27T06:35:32;25.63;;;15.88;;
39918;SDS011;25589;51.552;13.424;2022-08-27T06:37:59;28.63;;;17.35;;
39918;SDS011;25589;51.552;13.424;2022-08-27T06:40:24;28.95;;;16.90;;
39918;SDS011;25589;51.552;13.424;2022-08-27T06:42:50;27.67;;;17.33;;
39918;SDS011;25589;51.552;13.424;2022-08-27T06:45:15;30.85;;;17.88;;
39918;SDS011;25589;51.552;13.424;2022-08-27T06:47:41;32.45;;;19.58;;
39918;SDS011;25589;51.552;13.424;2022-08-27T06:50:07;30.77;;;19.30;;
39918;SDS011;25589;51.552;13.424;2022-08-27T06:52:32;32.85;;;18.77;;
39918;SDS011;25589;51.552;13.424;2022-08-27T06:54:58;32.42;;;20.00;;
39918;SDS011;25589;51.552;13.424;2022-08-27T06:57:24;31.40;;;18.75;;
39918;SDS011;25589;51.552;13.424;2022-08-27T06:59:49;30.83;;;19.38;;
39918;SDS011;25589;51.552;13.424;2022-08-27T07:02:15;31.95;;;19.77;;
39918;SDS011;25589;51.552;13.424;2022-08-27T07:04:41;31.27;;;20.00;;
39918;SDS011;25589;51.552;13.424;2022-08-27T07:07:09;31.20;;;21.33;;
39918;SDS011;25589;51.552;13.424;2022-08-27T07:09:35;32.10;;;20.60;;
39918;SDS011;25589;51.552;13.424;2022-08-27T07:12:01;30.95;;;20.55;;
39918;SDS011;25589;51.552;13.424;2022-08-27T07:14:27;32.25;;;20.40;;
39918;SDS011;25589;51.552;13.424;2022-08-27T07:16:53;29.40;;;19.23;;
39918;SDS011;25589;51.552;13.424;2022-08-27T07:19:19;32.88;;;20.27;;
39918;SDS011;25589;51.552;13.424;2022-08-27T07:21:44;30.17;;;18.98;;
39918;SDS011;25589;51.552;13.424;2022-08-27T07:24:10;27.25;;;18.80;;
39918;SDS011;25589;51.552;13.424;2022-08-27T07:26:37;29.92;;;18.15;;
39918;SDS011;25589;51.552;13.424;2022-08-27T07:29:06;26.27;;;18.10;;
39918;SDS011;25589;51.552;13.424;2022-08-27T07:31:33;24.25;;;17.80;;
39918;SDS011;25589;51.552;13.424;2022-08-27T07:34:03;25.63;;;18.52;;
39918;SDS011;25589;51.552;13.424;2022-08-27T07:36:30;23.45;;;16.65;;
39918;SDS011;25589;51.552;13.424;2022-08-27T07:38:56;23.63;;;16.60;;
39918;SDS011;25589;51.552;13.424;2022-08-27T07:41:21;22.23;;;16.30;;
39918;SDS011;25589;51.552;13.424;2022-08-27T07:43:47;24.25;;;17.33;;
39918;SDS011;25589;51.552;13.424;2022-08-27T07:46:31;21.15;;;15.75;;
39918;SDS011;25589;51.552;13.424;2022-08-27T07:48:57;24.58;;;17.20;;
39918;SDS011;25589;51.552;13.424;2022-08-27T07:51:23;21.05;;;15.98;;
39918;SDS011;25589;51.552;13.424;2022-08-27T07:53:50;22.10;;;16.35;;
39918;SDS011;25589;51.552;13.424;2022-08-27T07:56:18;23.77;;;16.52;;
39918;SDS011;25589;51.552;13.424;2022-08-27T07:58:44;20.92;;;15.55;;
39918;SDS011;25589;51.552;13.424;2022-08-27T08:01:10;23.70;;;14.43;;
39918;SDS011;25589;51.552;13.424;2022-08-27T08:03:37;20.10;;;15.27;;
39918;SDS011;25589;51.552;13.424;2022-08-27T08:06:04;24.08;;;15.88;;
39918;SDS011;25589;51.552;13.424;2022-08-27T08:08:35;22.77;;;14.93;;
39918;SDS011;25589;51.552;13.424;2022-08-27T08:11:01;20.05;;;15.02;;
39918;SDS011;25589;51.552;13.424;2022-08-27T08:13:28;19.90;;;15.30;;
39918;SDS011;25589;51.552;13.424;2022-08-27T08:15:55;21.80;;;15.57;;
39918;SDS011;25589;51.552;13.424;2022-08-27T08:18:22;18.90;;;14.60;;
39918;SDS011;25589;51.552;13.424;2022-08-27T08:20:47;18.90;;;14.10;;
39918;SDS011;25589;51.552;13.424;2022-08-27T08:23:13;20.63;;;14.45;;
39918;SDS011;25589;51.552;13.424;2022-08-27T08:25:39;21.50;;;14.68;;
39918;SDS011;25589;51.552;13.424;2022-08-27T08:28:05;20.42;;;15.10;;
39918;SDS011;25589;51.552;13.424;2022-08-27T08:30:31;19.95;;;14.05;;
39918;SDS011;25589;51.552;13.424;2022-08-27T08:32:57;19.95;;;13.60;;
39918;SDS011;25589;51.552;13.424;2022-08-27T08:35:22;18.83;;;14.23;;
39918;SDS011;25589;51.552;13.424;2022-08-27T08:37:48;17.45;;;14.02;;
39918;SDS011;25589;51.552;13.424;2022-08-27T08:40:19;18.90;;;13.90;;
39918;SDS011;25589;51.552;13.424;2022-08-27T08:42:52;21.63;;;14.05;;
39918;SDS011;25589;51.552;13.424;2022-08-27T08:45:23;21.08;;;13.70;;
39918;SDS011;25589;51.552;13.424;2022-08-27T08:48:09;19.73;;;14.60;;
39918;SDS011;25589;51.552;13.424;2022-08-27T08:50:48;17.40;;;13.73;;
39918;SDS011;25589;51.552;13.424;2022-08-27T08:53:37;17.90;;;12.68;;
39918;SDS011;25589;51.552;13.424;2022-08-27T08:56:10;20.02;;;13.98;;
39918;SDS011;25589;51.552;13.424;2022-08-27T09:01:22;23.05;;;13.55;;
39918;SDS011;25589;51.552;13.424;2022-08-27T09:03:51;17.02;;;13.02;;
39918;SDS011;25589;51.552;13.424;2022-08-27T09:06:31;21.00;;;13.57;;
39918;SDS011;25589;51.552;13.424;2022-08-27T09:09:03;14.35;;;11.20;;
39918;SDS011;25589;51.552;13.424;2022-08-27T09:11:50;16.50;;;12.27;;
39918;SDS011;25589;51.552;13.424;2022-08-27T09:17:08;15.15;;;11.00;;
39918;SDS011;25589;51.552;13.424;2022-08-27T09:19:34;11.32;;;9.27;;
39918;SDS011;25589;51.552;13.424;2022-08-27T09:22:02;11.15;;;9.50;;
39918;SDS011;25589;51.552;13.424;2022-08-27T09:24:48;13.02;;;9.93;;
39918;SDS011;25589;51.552;13.424;2022-08-27T09:27:32;14.75;;;10.20;;
39918;SDS011;25589;51.552;13.424;2022-08-27T09:30:03;11.63;;;9.68;;
39918;SDS011;25589;51.552;13.424;2022-08-27T09:32:32;13.98;;;10.65;;
39918;SDS011;25589;51.552;13.424;2022-08-27T09:34:59;14.60;;;10.63;;
39918;SDS011;25589;51.552;13.424;2022-08-27T09:37:29;12.85;;;9.07;;
39918;SDS011;25589;51.552;13.424;2022-08-27T09:39:58;12.02;;;9.43;;
39918;SDS011;25589;51.552;13.424;2022-08-27T09:42:45;12.63;;;9.48;;
39918;SDS011;25589;51.552;13.424;2022-08-27T09:45:20;10.25;;;8.93;;
39918;SDS011;25589;51.552;13.424;2022-08-27T09:47:50;9.82;;;8.45;;
39918;SDS011;25589;51.552;13.424;2022-08-27T09:50:20;10.00;;;8.35;;
39918;SDS011;25589;51.552;13.424;2022-08-27T09:52:52;11.52;;;8.73;;
39918;SDS011;25589;51.552;13.424;2022-08-27T09:55:37;11.47;;;8.50;;
39918;SDS011;25589;51.552;13.424;2022-08-27T09:58:20;14.25;;;10.18;;
39918;SDS011;25589;51.552;13.424;2022-08-27T10:00:56;13.52;;;10.20;;
39918;SDS011;25589;51.552;13.424;2022-08-27T10:03:24;14.27;;;10.27;;
39918;SDS011;25589;51.552;13.424;2022-08-27T10:05:50;13.38;;;10.95;;
39918;SDS011;25589;51.552;13.424;2022-08-27T10:08:22;14.73;;;11.20;;
39918;SDS011;25589;51.552;13.424;2022-08-27T10:13:31;12.98;;;10.98;;
39918;SDS011;25589;51.552;13.424;2022-08-27T10:18:58;13.68;;;10.23;;
39918;SDS011;25589;51.552;13.424;2022-08-27T10:21:44;13.02;;;10.02;;
39918;SDS011;25589;51.552;13.424;2022-08-27T10:27:25;11.93;;;9.52;;
39918;SDS011;25589;51.552;13.424;2022-08-27T10:30:02;10.50;;;9.17;;
39918;SDS011;25589;51.552;13.424;2022-08-27T10:32:36;13.88;;;10.55;;
39918;SDS011;25589;51.552;13.424;2022-08-27T10:35:08;11.27;;;8.93;;
39918;SDS011;25589;51.552;13.424;2022-08-27T10:37:59;12.05;;;9.02;;
39918;SDS011;25589;51.552;13.424;2022-08-27T10:41:04;12.40;;;9.48;;
39918;SDS011;25589;51.552;13.424;2022-08-27T10:46:54;10.90;;;8.98;;
39918;SDS011;25589;51.552;13.424;2022-08-27T10:50:14;10.80;;;9.25;;
39918;SDS011;25589;51.552;13.424;2022-08-27T10:55:29;13.60;;;9.98;;
39918;SDS011;25589;51.552;13.424;2022-08-27T10:58:07;15.23;;;9.73;;
39918;SDS011;25589;51.552;13.424;2022-08-27T11:00:41;15.38;;;10.40;;
39918;SDS011;25589;51.552;13.424;2022-08-27T11:03:31;12.20;;;9.90;;
39918;SDS011;25589;51.552;13.424;2022-08-27T11:06:02;10.95;;;9.13;;
39918;SDS011;25589;51.552;13.424;2022-08-27T11:08:43;11.90;;;9.30;;
39918;SDS011;25589;51.552;13.424;2022-08-27T11:11:19;12.27;;;9.40;;
39918;SDS011;25589;51.552;13.424;2022-08-27T11:14:05;12.65;;;9.20;;
39918;SDS011;25589;51.552;13.424;2022-08-27T11:16:41;12.20;;;8.98;;
39918;SDS011;25589;51.552;13.424;2022-08-27T11:19:15;10.95;;;8.73;;
39918;SDS011;25589;51.552;13.424;2022-08-27T11:21:50;8.93;;;8.02;;
39918;SDS011;25589;51.552;13.424;2022-08-27T11:26:53;8.52;;;7.40;;
39918;SDS011;25589;51.552;13.424;2022-08-27T11:29:25;9.50;;;8.40;;
39918;SDS011;25589;51.552;13.424;2022-08-27T11:32:02;9.60;;;7.88;;
39918;SDS011;25589;51.552;13.424;2022-08-27T11:34:36;11.82;;;8.57;;
39918;SDS011;25589;51.552;13.424;2022-08-27T11:42:53;9.77;;;8.68;;
39918;SDS011;25589;51.552;13.424;2022-08-27T11:45:30;9.43;;;7.82;;
39918;SDS011;25589;51.552;13.424;2022-08-27T11:48:13;9.80;;;7.60;;
39918;SDS011;25589;51.552;13.424;2022-08-27T11:51:00;9.38;;;8.40;;
39918;SDS011;25589;51.552;13.424;2022-08-27T11:53:36;11.65;;;8.88;;
39918;SDS011;25589;51.552;13.424;2022-08-27T11:58:55;12.75;;;9.63;;
39918;SDS011;25589;51.552;13.424;2022-08-27T12:01:32;14.50;;;10.10;;
39918;SDS011;25589;51.552;13.424;2022-08-27T12:03:59;14.05;;;9.93;;
39918;SDS011;25589;51.552;13.424;2022-08-27T12:06:27;11.98;;;10.45;;
39918;SDS011;25589;51.552;13.424;2022-08-27T12:12:33;14.07;;;10.82;;
39918;SDS011;25589;51.552;13.424;2022-08-27T12:15:54;13.32;;;10.10;;
39918;SDS011;25589;51.552;13.424;2022-08-27T12:18:45;12.35;;;9.80;;
39918;SDS011;25589;51.552;13.424;2022-08-27T12:24:17;12.35;;;9.90;;
39918;SDS011;25589;51.552;13.424;2022-08-27T12:26:55;13.57;;;10.15;;
39918;SDS011;25589;51.552;13.424;2022-08-27T12:29:49;13.75;;;10.20;;
39918;SDS011;25589;51.552;13.424;2022-08-27T12:32:50;13.13;;;10.40;;
39918;SDS011;25589;51.552;13.424;2022-08-27T12:37:47;16.92;;;11.45;;
39918;SDS011;25589;51.552;13.424;2022-08-27T12:40:39;15.30;;;10.68;;
39918;SDS011;25589;51.552;13.424;2022-08-27T12:43:16;17.45;;;11.07;;
39918;SDS011;25589;51.552;13.424;2022-08-27T12:45:57;15.23;;;12.15;;
39918;SDS011;25589;51.552;13.424;2022-08-27T12:48:37;15.57;;;12.38;;
39918;SDS011;25589;51.552;13.424;2022-08-27T12:51:09;12.85;;;11.13;;
39918;SDS011;25589;51.552;13.424;2022-08-27T12:54:11;13.73;;;10.95;;
39918;SDS011;25589;51.552;13.424;2022-08-27T12:57:15;14.13;;;9.98;;
39918;SDS011;25589;51.552;13.424;2022-08-27T13:02:27;14.95;;;10.25;;
39918;SDS011;25589;51.552;13.424;2022-08-27T13:05:17;14.75;;;10.80;;
39918;SDS011;25589;51.552;13.424;2022-08-27T13:07:45;13.55;;;10.90;;
39918;SDS011;25589;51.552;13.424;2022-08-27T13:10:16;16.20;;;11.10;;
39918;SDS011;25589;51.552;13.424;2022-08-27T13:12:59;16.60;;;10.90;;
39918;SDS011;25589;51.552;13.424;2022-08-27T13:15:28;16.85;;;12.50;;
39918;SDS011;25589;51.552;13.424;2022-08-27T13:17:53;15.45;;;11.98;;
39918;SDS011;25589;51.552;13.424;2022-08-27T13:20:20;16.02;;;12.27;;
39918;SDS011;25589;51.552;13.424;2022-08-27T13:22:48;13.90;;;10.60;;
39918;SDS011;25589;51.552;13.424;2022-08-27T13:28:02;16.60;;;11.65;;
39918;SDS011;25589;51.552;13.424;2022-08-27T13:30:38;13.18;;;10.43;;
39918;SDS011;25589;51.552;13.424;2022-08-27T13:33:09;16.17;;;11.20;;
39918;SDS011;25589;51.552;13.424;2022-08-27T13:35:40;15.55;;;10.73;;
39918;SDS011;25589;51.552;13.424;2022-08-27T13:38:07;15.98;;;10.27;;
39918;SDS011;25589;51.552;13.424;2022-08-27T13:40:35;12.52;;;10.18;;
39918;SDS011;25589;51.552;13.424;2022-08-27T13:43:14;20.10;;;10.38;;
39918;SDS011;25589;51.552;13.424;2022-08-27T13:45:40;17.50;;;11.38;;
39918;SDS011;25589;51.552;13.424;2022-08-27T13:48:06;17.50;;;11.73;;
39918;SDS011;25589;51.552;13.424;2022-08-27T13:50:32;14.25;;;10.80;;
39918;SDS011;25589;51.552;13.424;2022-08-27T13:53:05;13.02;;;10.63;;
39918;SDS011;25589;51.552;13.424;2022-08-27T13:56:05;16.13;;;10.50;;
39918;SDS011;25589;51.552;13.424;2022-08-27T13:58:32;15.18;;;10.73;;
39918;SDS011;25589;51.552;13.424;2022-08-27T14:01:09;18.50;;;10.50;;
39918;SDS011;25589;51.552;13.424;2022-08-27T14:03:47;12.18;;;9.70;;
39918;SDS011;25589;51.552;13.424;2022-08-27T14:06:24;15.70;;;9.88;;
39918;SDS011;25589;51.552;13.424;2022-08-27T14:09:18;14.52;;;10.27;;
39918;SDS011;25589;51.552;13.424;2022-08-27T14:11:58;12.75;;;9.50;;
39918;SDS011;25589;51.552;13.424;2022-08-27T14:14:29;14.20;;;10.63;;
39918;SDS011;25589;51.552;13.424;2022-08-27T14:17:01;12.23;;;9.48;;
39918;SDS011;25589;51.552;13.424;2022-08-27T14:19:32;13.32;;;10.02;;
39918;SDS011;25589;51.552;13.424;2022-08-27T14:21:58;16.10;;;11.52;;
39918;SDS011;25589;51.552;13.424;2022-08-27T14:24:25;15.23;;;11.00;;
39918;SDS011;25589;51.552;13.424;2022-08-27T14:26:53;15.93;;;10.98;;
39918;SDS011;25589;51.552;13.424;2022-08-27T14:29:26;13.55;;;10.70;;
39918;SDS011;25589;51.552;13.424;2022-08-27T14:31:52;14.25;;;10.57;;
39918;SDS011;25589;51.552;13.424;2022-08-27T14:34:18;15.35;;;10.32;;
39918;SDS011;25589;51.552;13.424;2022-08-27T14:36:43;16.92;;;11.77;;
39918;SDS011;25589;51.552;13.424;2022-08-27T14:39:09;14.18;;;10.73;;
39918;SDS011;25589;51.552;13.424;2022-08-27T14:41:37;14.27;;;10.38;;
39918;SDS011;25589;51.552;13.424;2022-08-27T14:44:03;15.93;;;11.65;;
39918;SDS011;25589;51.552;13.424;2022-08-27T14:46:30;15.52;;;11.63;;
39918;SDS011;25589;51.552;13.424;2022-08-27T14:48:59;16.08;;;10.45;;
39918;SDS011;25589;51.552;13.424;2022-08-27T14:51:28;15.15;;;10.70;;
39918;SDS011;25589;51.552;13.424;2022-08-27T14:53:56;14.20;;;10.70;;
39918;SDS011;25589;51.552;13.424;2022-08-27T14:56:22;13.20;;;10.55;;
39918;SDS011;25589;51.552;13.424;2022-08-27T14:58:49;14.45;;;11.32;;
39918;SDS011;25589;51.552;13.424;2022-08-27T15:01:14;16.38;;;11.18;;
39918;SDS011;25589;51.552;13.424;2022-08-27T15:03:46;14.88;;;10.73;;
39918;SDS011;25589;51.552;13.424;2022-08-27T15:06:13;12.00;;;9.85;;
39918;SDS011;25589;51.552;13.424;2022-08-27T15:08:40;14.95;;;10.52;;
39918;SDS011;25589;51.552;13.424;2022-08-27T15:11:06;17.23;;;11.32;;
39918;SDS011;25589;51.552;13.424;2022-08-27T15:13:59;15.57;;;9.98;;
39918;SDS011;25589;51.552;13.424;2022-08-27T15:16:32;14.48;;;11.23;;
39918;SDS011;25589;51.552;13.424;2022-08-27T15:19:04;14.23;;;10.45;;
39918;SDS011;25589;51.552;13.424;2022-08-27T15:21:32;19.85;;;11.93;;
39918;SDS011;25589;51.552;13.424;2022-08-27T15:23:59;12.75;;;9.98;;
39918;SDS011;25589;51.552;13.424;2022-08-27T15:26:27;17.58;;;10.55;;